首页
METAR-TAF:

METAR-TAF

机场 :

法布拉, 英格兰

纬度: 51-17N, 经度: 000-46W, 海拔: 65米

当前天气观测

该预报发布于24分钟前的01:50 UTC
风速2节,风向西南
温度 0°C
湿度 100%
气压 1009 hPa
能見度: 2400
轻雾

METAR: EGLF 170150Z AUTO 22002KT 2400 BR NCD 00/00 Q1009

时间: 02:14 (02:14 UTC)

预报

该预报发布于9小时和16分钟前的16:58 UTC
预报有效从16日的 18点(UTC)到 16日的 20点(UTC)
风速5节,风向
能见度10公里或以上
散云层高于4000英尺
几率 30% :
短暂存在
从 16日的 18点(UTC)到 16日的 20点(UTC)
能見度: 8000

TAF: EGLF 161658Z 1618/1620 01005KT 9999 SCT040 PROB30 TEMPO 1618/1620 8000

超过4000个机场的气象观测和天气预报(METAR&TAF报告)。

可查询的气象台以黄色和红色小点在地图上表示。

将鼠标移到小点上方,可查看气象台名称。

然后点击查看天气观测和预报。

如需切换地图:点击带黑十字的绿色按钮放大地图;点击带横线的绿色按钮缩小地图;或者点击绿色箭头查看邻近地区的地图。


METAR-TAF: